Mount Hood, OR

1:31 PM PST on February 14, 2016 (GMT -0800)
Parkdale West | | Change Station
CLOSE
Current Station
Personal Weather Station
Location: Mt Hood Parkdale, OR
Elevation: 1473 ft
Nearby Weather Stations

Elev 1473 ft 45.54 °N, 121.62 °W | Updated 1 second ago

Rain
Rain
55.9 °F
Feels Like 55.9 °F
N
1.0
Wind Variable Wind from SW
Gusts 0.0 mph

Today
High -- | Low -- °F
--% Chance of Precip.
Yesterday
High -- | Low -- °F
Precip. -- in
Pressure 30.17 in
Visibility 10.0 miles
Clouds Scattered Clouds 4100 ft
Mostly Cloudy 5500 ft
Dew Point 51 °F
Humidity 84%
Rainfall 0.46 in
Snow Depth Not available.
7:10 AM 5:32 PM
Waxing Crescent, 45% visible
METAR KDLS 142053Z AUTO 00000KT 10SM SCT041 BKN055 13/08 A3017 RMK AO2 SLP215 T01280083 58012
Pressure 30.17 in
Visibility 10.0 miles
Clouds Scattered Clouds 4100 ft
Mostly Cloudy 5500 ft
Dew Point 51 °F
Humidity 84%
Rainfall 0.46 in
Snow Depth Not available.
7:10 AM 5:32 PM
Waxing Crescent, 45% visible
METAR KDLS 142053Z AUTO 00000KT 10SM SCT041 BKN055 13/08 A3017 RMK AO2 SLP215 T01280083 58012

10-Day Weather Forecast

Almanac

Astronomy

Feb. 14, 2016 Rise Set
Actual Time
Civil Twilight
Nautical Twilight
Astronomical Twilight
Moon
Length of Visible Light
Length of Day
Tomorrow will be .
, % of the Moon is Illuminated

Today's Extremes

State Highs State Lows

Community

WunderPhotos

Upload Photos

1,892,890 photos uploaded!

WunderBlog® & News

Nearby

Air Quality

  Air Quality AQ Index Pollutant
Not available.

Snow Depth

Station Depth Elevation

Earthquake Activity

City Distance Mag. Time & Date
Minimum magnitude displayed is 2.5.

Coastal Water Temperatures

Place Temperature

Stations

Nearby Weather Stations

Station Location Temp. Windchill Dew Point Humidity Wind Precip. Elev Updated Type
                   

Watches & Warnings

There are currently no watches in effect.